createdAt,value
2023-01-09T00:00:16.503Z,1.47
2023-01-09T00:02:45.751Z,1.20
2023-01-09T00:05:16.923Z,1.83
2023-01-09T00:07:46.000Z,1.80
2023-01-09T00:10:16.440Z,1.80
2023-01-09T00:12:45.516Z,1.73
2023-01-09T00:15:14.566Z,1.37
2023-01-09T00:17:43.772Z,1.60
2023-01-09T00:20:13.215Z,1.63
2023-01-09T00:22:42.355Z,1.30
2023-01-09T00:25:11.874Z,1.30
2023-01-09T00:27:42.281Z,1.57
2023-01-09T00:30:12.535Z,1.67
2023-01-09T00:32:41.935Z,1.30
2023-01-09T00:35:15.335Z,1.53
2023-01-09T00:37:44.468Z,1.57
2023-01-09T00:40:16.813Z,1.70
2023-01-09T00:42:50.571Z,1.77
2023-01-09T00:45:28.476Z,1.87
2023-01-09T00:48:02.253Z,1.60
2023-01-09T00:50:34.363Z,1.60
2023-01-09T00:53:09.412Z,1.33
2023-01-09T00:55:39.263Z,1.40
2023-01-09T00:58:10.034Z,1.80
2023-01-09T01:00:39.101Z,2.20
2023-01-09T01:03:08.163Z,1.60
2023-01-09T01:05:54.625Z,1.60
2023-01-09T01:08:23.672Z,2.10
2023-01-09T01:10:52.795Z,2.13
2023-01-09T01:13:23.327Z,1.77
2023-01-09T01:15:52.412Z,1.50
2023-01-09T01:18:21.463Z,1.83
2023-01-09T01:20:50.464Z,1.83
2023-01-09T01:23:19.521Z,1.70
2023-01-09T01:25:49.147Z,1.93
2023-01-09T01:28:19.183Z,1.80
2023-01-09T01:30:49.684Z,1.70
2023-01-09T01:33:18.788Z,2.00
2023-01-09T01:35:47.877Z,1.80
2023-01-09T01:38:16.938Z,1.63
2023-01-09T01:40:46.003Z,1.50
2023-01-09T01:43:15.075Z,1.97
2023-01-09T01:45:44.192Z,1.77
2023-01-09T01:48:17.384Z,1.67
2023-01-09T01:50:49.374Z,1.90
2023-01-09T01:53:22.641Z,2.13
2023-01-09T01:56:03.632Z,1.63
2023-01-09T01:58:33.050Z,1.77
2023-01-09T02:01:03.415Z,2.07
2023-01-09T02:03:35.187Z,1.87
2023-01-09T02:06:05.238Z,1.47
2023-01-09T02:08:34.444Z,1.90
2023-01-09T02:11:05.477Z,1.90
2023-01-09T02:13:38.562Z,1.80
2023-01-09T02:16:22.901Z,1.90
2023-01-09T02:19:01.113Z,1.97
2023-01-09T02:21:40.880Z,1.87
2023-01-09T02:24:21.250Z,1.93
2023-01-09T02:27:25.211Z,1.70
2023-01-09T02:30:32.773Z,2.03
2023-01-09T02:33:16.781Z,1.80
2023-01-09T02:36:01.368Z,1.50
2023-01-09T02:38:38.093Z,1.83
2023-01-09T02:41:14.129Z,2.33
2023-01-09T02:43:43.189Z,1.93
2023-01-09T02:46:22.239Z,1.90
2023-01-09T02:48:55.060Z,1.70
2023-01-09T02:51:30.601Z,1.93
2023-01-09T02:54:26.243Z,2.13
2023-01-09T02:57:18.976Z,1.63
2023-01-09T03:00:01.970Z,2.03
2023-01-09T03:02:43.026Z,2.00
2023-01-09T03:05:20.257Z,1.90
2023-01-09T03:07:57.613Z,1.60
2023-01-09T03:10:33.012Z,1.77
2023-01-09T03:13:04.245Z,2.17
2023-01-09T03:15:37.249Z,2.10
2023-01-09T03:18:11.658Z,2.07
2023-01-09T03:20:42.332Z,2.00
2023-01-09T03:23:11.398Z,1.73
2023-01-09T03:25:40.419Z,1.53
2023-01-09T03:28:19.422Z,1.60
2023-01-09T03:30:48.436Z,1.60
2023-01-09T03:33:18.834Z,1.83
2023-01-09T03:35:48.060Z,1.70
2023-01-09T03:38:17.186Z,2.00
2023-01-09T03:40:46.301Z,1.90
2023-01-09T03:43:15.370Z,1.93
2023-01-09T03:45:44.656Z,1.63
2023-01-09T03:48:13.733Z,1.73
2023-01-09T03:50:45.964Z,1.97
2023-01-09T03:53:15.185Z,1.60
2023-01-09T03:55:46.974Z,1.77
2023-01-09T03:58:16.920Z,1.60
2023-01-09T04:00:48.763Z,1.97
2023-01-09T04:03:19.099Z,1.57
2023-01-09T04:05:50.620Z,1.70
2023-01-09T04:08:20.306Z,1.70
2023-01-09T04:10:50.395Z,1.63
2023-01-09T04:13:19.812Z,1.43
2023-01-09T04:15:49.039Z,1.70
2023-01-09T04:18:18.202Z,1.63
2023-01-09T04:20:50.177Z,1.53
2023-01-09T04:23:19.269Z,1.53
2023-01-09T04:25:48.996Z,1.47
2023-01-09T04:28:18.022Z,1.30
2023-01-09T04:30:47.061Z,1.43
2023-01-09T04:33:16.092Z,1.20
2023-01-09T04:35:45.147Z,1.73
2023-01-09T04:38:15.667Z,1.60
2023-01-09T04:40:44.725Z,1.30
2023-01-09T04:43:13.782Z,1.43
2023-01-09T04:45:42.832Z,1.40
2023-01-09T04:48:12.023Z,1.20
2023-01-09T04:50:41.133Z,1.73
2023-01-09T04:53:10.243Z,1.70
2023-01-09T04:55:42.922Z,1.77
2023-01-09T04:58:11.913Z,1.50
2023-01-09T05:00:40.973Z,1.87
2023-01-09T05:03:10.019Z,1.30
2023-01-09T05:05:39.079Z,1.70
2023-01-09T05:08:08.709Z,1.17
2023-01-09T05:10:39.086Z,1.70
2023-01-09T05:13:08.200Z,1.40
2023-01-09T05:15:37.256Z,1.30
2023-01-09T05:18:06.420Z,1.40
2023-01-09T05:20:35.549Z,1.53
2023-01-09T05:23:04.792Z,1.80
2023-01-09T05:25:33.922Z,1.60
2023-01-09T05:28:04.330Z,1.37
2023-01-09T05:30:33.361Z,1.77
2023-01-09T05:33:02.518Z,1.40
2023-01-09T05:35:31.793Z,1.20
2023-01-09T05:38:00.883Z,1.50
2023-01-09T05:40:39.632Z,1.63
2023-01-09T05:43:10.726Z,1.47
2023-01-09T05:45:39.807Z,1.23
2023-01-09T05:48:08.851Z,1.50
2023-01-09T05:50:37.888Z,1.30
2023-01-09T05:53:07.450Z,1.47
2023-01-09T05:55:36.534Z,1.13
2023-01-09T05:58:05.642Z,2.00
2023-01-09T06:00:36.858Z,1.60
2023-01-09T06:03:06.078Z,1.10
2023-01-09T06:05:35.226Z,1.13
2023-01-09T06:08:04.287Z,0.87
2023-01-09T06:10:33.297Z,0.87
2023-01-09T06:13:02.721Z,0.90
2023-01-09T06:15:31.735Z,0.60
2023-01-09T06:18:02.119Z,0.63
2023-01-09T06:20:31.226Z,0.50
2023-01-09T06:23:00.284Z,0.60
2023-01-09T06:25:29.338Z,0.77
2023-01-09T06:27:58.613Z,0.40
2023-01-09T06:30:28.125Z,0.50
2023-01-09T06:32:57.423Z,0.60
2023-01-09T06:35:28.115Z,0.57
2023-01-09T06:37:58.450Z,0.60
2023-01-09T06:40:27.830Z,0.50
2023-01-09T06:42:57.116Z,0.50
2023-01-09T06:45:26.595Z,0.70
2023-01-09T06:47:56.208Z,0.70
2023-01-09T06:50:26.860Z,0.80
2023-01-09T06:52:56.127Z,0.67
2023-01-09T06:55:26.444Z,0.80
2023-01-09T06:57:55.739Z,0.83
2023-01-09T07:00:25.263Z,0.70
2023-01-09T07:02:54.318Z,0.70
2023-01-09T07:05:23.405Z,0.80
2023-01-09T07:07:53.794Z,0.83
2023-01-09T07:10:22.988Z,0.80
2023-01-09T07:12:52.060Z,0.60
2023-01-09T07:15:21.309Z,0.87
2023-01-09T07:17:52.020Z,0.77
2023-01-09T07:20:22.462Z,0.90
2023-01-09T07:22:53.892Z,0.83
2023-01-09T07:25:23.153Z,0.80
2023-01-09T07:27:52.210Z,0.80
2023-01-09T07:30:21.292Z,0.77
2023-01-09T07:32:50.375Z,0.90
2023-01-09T07:35:19.508Z,0.90
2023-01-09T07:37:48.680Z,0.90
2023-01-09T07:40:19.349Z,1.33
2023-01-09T07:42:48.376Z,1.40
2023-01-09T07:45:17.686Z,1.60
2023-01-09T07:47:46.782Z,1.60
2023-01-09T07:50:15.921Z,1.60
2023-01-09T07:52:46.415Z,1.87
2023-01-09T07:55:17.481Z,2.20
2023-01-09T07:57:51.968Z,2.40
2023-01-09T08:00:22.044Z,2.70
2023-01-09T08:02:54.017Z,3.27
2023-01-09T08:05:23.281Z,3.33
2023-01-09T08:07:52.346Z,3.50
2023-01-09T08:10:21.783Z,3.20
2023-01-09T08:12:52.281Z,3.27
2023-01-09T08:15:21.334Z,4.30
2023-01-09T08:17:50.372Z,4.63
2023-01-09T08:20:19.862Z,4.50
2023-01-09T08:22:53.923Z,6.27
2023-01-09T08:25:23.279Z,4.63
2023-01-09T08:27:53.676Z,3.93
2023-01-09T08:30:22.829Z,18.27
2023-01-09T08:32:53.442Z,5.20
2023-01-09T08:35:22.582Z,6.13
2023-01-09T08:37:51.764Z,12.37
2023-01-09T08:40:21.039Z,6.30
2023-01-09T08:43:07.497Z,5.03
2023-01-09T08:45:55.481Z,5.40
2023-01-09T08:48:24.636Z,5.20
2023-01-09T08:50:54.276Z,4.60
2023-01-09T08:53:23.381Z,4.70
2023-01-09T08:55:52.407Z,4.57
2023-01-09T08:58:21.518Z,4.93
2023-01-09T09:00:51.898Z,5.50
2023-01-09T09:03:21.726Z,4.37
2023-01-09T09:05:50.766Z,4.90
2023-01-09T09:08:20.240Z,7.03
2023-01-09T09:10:49.266Z,5.20
2023-01-09T09:13:18.294Z,5.40
2023-01-09T09:15:47.540Z,6.03
2023-01-09T09:18:18.348Z,5.83
2023-01-09T09:20:47.369Z,3.93
2023-01-09T09:23:16.394Z,3.00
2023-01-09T09:25:45.481Z,5.00
2023-01-09T09:28:14.697Z,5.70
2023-01-09T09:30:43.719Z,5.53
2023-01-09T09:33:12.802Z,5.00
2023-01-09T09:35:43.485Z,4.97
2023-01-09T09:38:13.285Z,4.43
2023-01-09T09:41:07.507Z,4.70
2023-01-09T09:44:14.771Z,4.90
2023-01-09T09:46:51.444Z,4.23
2023-01-09T09:49:29.213Z,4.67
2023-01-09T09:52:14.773Z,4.90
2023-01-09T09:54:49.921Z,4.30
2023-01-09T09:57:24.273Z,4.87
2023-01-09T09:59:54.419Z,5.23
2023-01-09T10:02:30.095Z,6.27
2023-01-09T10:05:06.278Z,5.97
2023-01-09T10:07:44.509Z,5.00
2023-01-09T10:10:20.567Z,4.97
2023-01-09T10:12:55.960Z,5.73
2023-01-09T10:15:38.551Z,5.23
2023-01-09T10:18:21.890Z,6.03
2023-01-09T10:20:57.744Z,4.10
2023-01-09T10:23:51.694Z,3.77
2023-01-09T10:26:28.525Z,4.53
2023-01-09T10:29:36.401Z,4.20
2023-01-09T10:32:18.970Z,3.97
2023-01-09T10:34:57.641Z,4.10
2023-01-09T10:37:30.441Z,4.10
2023-01-09T10:40:05.788Z,3.47
2023-01-09T10:42:40.683Z,3.67
2023-01-09T10:45:22.076Z,3.73
2023-01-09T10:47:51.468Z,3.47
2023-01-09T10:50:24.235Z,3.30
2023-01-09T10:52:55.908Z,3.60
2023-01-09T10:55:34.260Z,3.20
2023-01-09T10:58:10.137Z,3.53
2023-01-09T11:00:40.502Z,3.57
2023-01-09T11:03:14.174Z,3.63
2023-01-09T11:05:44.285Z,3.43
2023-01-09T11:08:23.249Z,3.13
2023-01-09T11:10:55.880Z,3.57
2023-01-09T11:13:27.077Z,3.23
2023-01-09T11:16:05.696Z,3.20
2023-01-09T11:18:36.437Z,2.83
2023-01-09T11:21:33.027Z,4.27
2023-01-09T11:24:28.880Z,2.70
2023-01-09T11:27:33.901Z,2.60
2023-01-09T11:30:19.987Z,2.80
2023-01-09T11:32:50.120Z,2.87
2023-01-09T11:35:23.690Z,3.53
2023-01-09T11:38:03.339Z,2.60
2023-01-09T11:40:45.822Z,3.60
2023-01-09T11:43:19.659Z,3.70
2023-01-09T11:46:01.227Z,3.60
2023-01-09T11:48:34.150Z,2.63
2023-01-09T11:51:06.711Z,3.77
2023-01-09T11:53:58.377Z,3.53
2023-01-09T11:56:27.755Z,3.17
2023-01-09T11:58:56.739Z,3.03
2023-01-09T12:01:58.972Z,3.00
2023-01-09T12:04:33.229Z,2.23
2023-01-09T12:07:37.180Z,2.57
2023-01-09T12:10:24.454Z,3.10
2023-01-09T12:13:01.959Z,2.10
2023-01-09T12:15:37.363Z,2.30
2023-01-09T12:18:32.733Z,2.87
2023-01-09T12:21:17.734Z,2.50
2023-01-09T12:24:05.019Z,2.70
2023-01-09T12:26:37.801Z,2.40
2023-01-09T12:29:57.098Z,2.30
2023-01-09T12:32:38.320Z,2.27
2023-01-09T12:35:21.274Z,3.47
2023-01-09T12:38:07.299Z,2.77
2023-01-09T12:41:09.238Z,2.93
2023-01-09T12:43:50.547Z,3.23
2023-01-09T12:46:21.941Z,2.73
2023-01-09T12:49:18.323Z,3.13
2023-01-09T12:51:53.020Z,3.17
2023-01-09T12:54:33.579Z,3.07
2023-01-09T12:57:07.478Z,3.50
2023-01-09T12:59:41.190Z,3.30
2023-01-09T13:02:20.718Z,3.57
2023-01-09T13:04:55.729Z,3.17
2023-01-09T13:07:31.228Z,3.13
2023-01-09T13:10:07.606Z,3.23
2023-01-09T13:12:40.481Z,3.63
2023-01-09T13:15:25.641Z,3.50
2023-01-09T13:17:59.810Z,3.03
2023-01-09T13:20:34.941Z,4.43
2023-01-09T13:23:07.556Z,3.70
2023-01-09T13:25:46.560Z,4.20
2023-01-09T13:28:21.918Z,3.83
2023-01-09T13:31:03.256Z,3.57
2023-01-09T13:33:35.669Z,3.53
2023-01-09T13:36:06.326Z,3.57
2023-01-09T13:38:40.316Z,3.63
2023-01-09T13:41:35.186Z,3.60
2023-01-09T13:44:07.193Z,4.50
2023-01-09T13:46:39.465Z,3.87
2023-01-09T13:49:29.751Z,4.50
2023-01-09T13:52:01.230Z,3.93
2023-01-09T13:55:03.774Z,4.10
2023-01-09T13:57:34.820Z,3.70
2023-01-09T14:00:44.741Z,3.93
2023-01-09T14:03:20.400Z,3.63
2023-01-09T14:06:17.518Z,4.33
2023-01-09T14:08:48.912Z,3.63
2023-01-09T14:11:27.295Z,4.23
2023-01-09T14:14:08.180Z,3.70
2023-01-09T14:16:39.038Z,4.10
2023-01-09T14:19:30.940Z,4.37
2023-01-09T14:22:01.406Z,4.17
2023-01-09T14:24:34.162Z,4.07
2023-01-09T14:27:04.788Z,3.90
2023-01-09T14:29:45.844Z,4.73
2023-01-09T14:32:51.513Z,3.67
2023-01-09T14:35:41.475Z,3.67
2023-01-09T14:38:27.050Z,4.57
2023-01-09T14:41:00.554Z,3.77
2023-01-09T14:43:45.068Z,4.43
2023-01-09T14:46:18.335Z,4.63
2023-01-09T14:49:04.158Z,4.10
2023-01-09T14:51:36.811Z,4.40
2023-01-09T14:54:25.871Z,4.33
2023-01-09T14:56:54.975Z,4.00
2023-01-09T14:59:26.683Z,3.90
2023-01-09T15:01:58.700Z,4.20
2023-01-09T15:04:34.929Z,4.57
2023-01-09T15:07:05.955Z,3.87
2023-01-09T15:09:44.280Z,3.60
2023-01-09T15:12:20.713Z,3.40
2023-01-09T15:14:56.259Z,4.40
2023-01-09T15:17:28.591Z,3.53
2023-01-09T15:19:59.976Z,3.70
2023-01-09T15:22:31.321Z,3.43
2023-01-09T15:25:13.136Z,3.40
2023-01-09T15:27:49.578Z,4.40
2023-01-09T15:30:28.146Z,4.33
2023-01-09T15:32:58.637Z,3.63
2023-01-09T15:35:29.502Z,3.37
2023-01-09T15:37:59.189Z,3.50
2023-01-09T15:40:34.006Z,3.40
2023-01-09T15:43:04.115Z,3.37
2023-01-09T15:45:38.427Z,3.50
2023-01-09T15:48:23.127Z,3.20
2023-01-09T15:50:55.050Z,3.63
2023-01-09T15:53:26.378Z,3.67
2023-01-09T15:56:23.821Z,3.30
2023-01-09T15:58:54.462Z,3.80
2023-01-09T16:01:33.670Z,3.57
2023-01-09T16:04:08.372Z,3.67
2023-01-09T16:06:45.239Z,3.70
2023-01-09T16:09:20.956Z,3.97
2023-01-09T16:11:53.344Z,4.40
2023-01-09T16:14:27.407Z,4.97
2023-01-09T16:17:04.239Z,4.20
2023-01-09T16:19:44.685Z,4.57
2023-01-09T16:22:21.590Z,4.73
2023-01-09T16:24:53.505Z,4.80
2023-01-09T16:27:28.664Z,3.80
2023-01-09T16:29:59.530Z,4.57
2023-01-09T16:32:31.998Z,5.07
2023-01-09T16:35:06.071Z,4.83
2023-01-09T16:37:37.295Z,4.47
2023-01-09T16:40:32.016Z,4.63
2023-01-09T16:43:01.717Z,4.20
2023-01-09T16:45:34.140Z,4.97
2023-01-09T16:48:12.423Z,4.97
2023-01-09T16:50:42.379Z,6.00
2023-01-09T16:53:16.629Z,6.27
2023-01-09T16:55:46.903Z,6.73
2023-01-09T16:58:18.616Z,5.87
2023-01-09T17:00:48.137Z,6.13
2023-01-09T17:03:20.205Z,5.50
2023-01-09T17:05:52.150Z,5.90
2023-01-09T17:08:23.781Z,6.90
2023-01-09T17:10:53.950Z,6.07
2023-01-09T17:13:23.601Z,6.77
2023-01-09T17:15:53.780Z,6.13
2023-01-09T17:18:25.560Z,6.37
2023-01-09T17:20:56.191Z,5.70
2023-01-09T17:23:26.570Z,6.83
2023-01-09T17:26:15.398Z,7.77
2023-01-09T17:28:48.658Z,8.10
2023-01-09T17:31:18.205Z,8.43
2023-01-09T17:33:48.753Z,7.63
2023-01-09T17:36:24.181Z,8.10
2023-01-09T17:38:55.009Z,9.80
2023-01-09T17:41:25.326Z,9.70
2023-01-09T17:43:54.845Z,8.00
2023-01-09T17:46:28.400Z,7.97
2023-01-09T17:49:00.170Z,7.80
2023-01-09T17:51:30.009Z,7.77
2023-01-09T17:53:59.787Z,8.70
2023-01-09T17:56:32.046Z,7.57
2023-01-09T17:59:02.005Z,7.47
2023-01-09T18:01:31.201Z,7.53
2023-01-09T18:04:01.771Z,7.80
2023-01-09T18:06:30.869Z,6.93
2023-01-09T18:08:59.936Z,7.60
2023-01-09T18:11:29.000Z,6.40
2023-01-09T18:13:58.040Z,7.27
2023-01-09T18:16:28.869Z,6.77
2023-01-09T18:18:59.296Z,6.70
2023-01-09T18:21:30.551Z,7.37
2023-01-09T18:24:01.361Z,7.40
2023-01-09T18:26:30.423Z,7.17
2023-01-09T18:29:00.939Z,7.53
2023-01-09T18:31:31.250Z,6.70
2023-01-09T18:34:02.462Z,6.70
2023-01-09T18:36:33.731Z,8.90
2023-01-09T18:39:05.413Z,7.73
2023-01-09T18:41:34.559Z,7.30
2023-01-09T18:44:03.804Z,7.90
2023-01-09T18:46:33.044Z,7.93
2023-01-09T18:49:04.328Z,7.57
2023-01-09T18:51:36.377Z,7.30
2023-01-09T18:54:08.162Z,7.67
2023-01-09T18:56:37.526Z,8.07
2023-01-09T18:59:07.141Z,8.10
2023-01-09T19:01:36.955Z,9.23
2023-01-09T19:04:06.488Z,8.83
2023-01-09T19:06:37.656Z,7.53
2023-01-09T19:09:07.079Z,8.87
2023-01-09T19:11:36.107Z,8.93
2023-01-09T19:14:05.375Z,9.63
2023-01-09T19:16:34.483Z,9.40
2023-01-09T19:19:06.312Z,8.70
2023-01-09T19:21:37.252Z,8.83
2023-01-09T19:24:07.173Z,9.63
2023-01-09T19:26:36.283Z,9.20
2023-01-09T19:29:05.607Z,10.00
2023-01-09T19:31:35.359Z,11.37
2023-01-09T19:34:04.531Z,11.07
2023-01-09T19:36:33.644Z,11.87
2023-01-09T19:39:05.170Z,16.27
2023-01-09T19:41:34.204Z,12.10
2023-01-09T19:44:05.080Z,10.33
2023-01-09T19:46:35.405Z,11.47
2023-01-09T19:49:06.072Z,13.50
2023-01-09T19:51:35.530Z,13.17
2023-01-09T19:56:37.886Z,10.67
2023-01-09T19:59:08.189Z,10.20
2023-01-09T20:01:41.532Z,12.30
2023-01-09T20:04:14.965Z,10.03
2023-01-09T20:06:46.467Z,10.80
2023-01-09T20:09:21.430Z,12.63
2023-01-09T20:11:50.797Z,11.87
2023-01-09T20:14:22.433Z,11.47
2023-01-09T20:16:53.942Z,10.37
2023-01-09T20:19:23.438Z,10.50
2023-01-09T20:21:52.771Z,11.30
2023-01-09T20:24:23.184Z,11.60
2023-01-09T20:26:52.454Z,10.33
2023-01-09T20:29:21.866Z,10.80
2023-01-09T20:31:51.126Z,12.27
2023-01-09T20:34:20.376Z,11.10
2023-01-09T20:36:49.522Z,11.00
2023-01-09T20:39:18.577Z,11.40
2023-01-09T20:41:49.204Z,11.37
2023-01-09T20:44:18.284Z,11.83
2023-01-09T20:46:48.117Z,10.87
2023-01-09T20:49:19.394Z,11.43
2023-01-09T20:51:49.850Z,11.27
2023-01-09T20:54:21.492Z,10.77
2023-01-09T20:56:52.233Z,11.20
2023-01-09T20:59:22.244Z,12.30
2023-01-09T21:01:51.984Z,13.17
2023-01-09T21:04:21.391Z,12.07
2023-01-09T21:06:50.719Z,12.30
2023-01-09T21:09:20.305Z,12.50
2023-01-09T21:11:50.707Z,11.73
2023-01-09T21:14:20.235Z,10.37
2023-01-09T21:16:54.973Z,11.17
2023-01-09T21:19:26.965Z,11.37
2023-01-09T21:21:56.153Z,11.60
2023-01-09T21:24:25.231Z,11.90
2023-01-09T21:26:55.637Z,11.00
2023-01-09T21:29:24.714Z,12.20
2023-01-09T21:31:56.086Z,11.87
2023-01-09T21:34:26.591Z,11.00
2023-01-09T21:36:55.920Z,10.33
2023-01-09T21:39:25.298Z,11.50
2023-01-09T21:42:13.247Z,11.47
2023-01-09T21:44:59.786Z,10.80
2023-01-09T21:47:32.279Z,11.30
2023-01-09T21:50:01.449Z,9.57
2023-01-09T21:52:30.499Z,9.63
2023-01-09T21:54:59.526Z,16.43
2023-01-09T21:57:29.953Z,12.87
2023-01-09T21:59:59.075Z,11.77
2023-01-09T22:02:28.119Z,10.27
2023-01-09T22:05:00.131Z,11.30
2023-01-09T22:07:30.775Z,11.83
2023-01-09T22:10:00.281Z,11.13
2023-01-09T22:12:30.827Z,11.07
2023-01-09T22:15:00.183Z,11.63
2023-01-09T22:17:30.222Z,10.87
2023-01-09T22:19:59.461Z,10.37
2023-01-09T22:22:28.533Z,11.27
2023-01-09T22:24:59.235Z,10.20
2023-01-09T22:27:28.284Z,10.47
2023-01-09T22:29:58.758Z,10.63
2023-01-09T22:32:27.839Z,9.97
2023-01-09T22:34:56.891Z,11.07
2023-01-09T22:37:25.909Z,10.33
2023-01-09T22:39:54.918Z,10.00
2023-01-09T22:42:24.061Z,10.53
2023-01-09T22:44:53.190Z,11.00
2023-01-09T22:47:23.579Z,9.33
2023-01-09T22:49:53.453Z,8.40
2023-01-09T22:52:23.674Z,8.77
2023-01-09T22:54:52.708Z,8.87
2023-01-09T22:57:21.771Z,9.57
2023-01-09T22:59:50.799Z,8.50
2023-01-09T23:02:20.122Z,8.47
2023-01-09T23:04:50.663Z,9.90
2023-01-09T23:07:19.710Z,9.77
2023-01-09T23:09:48.854Z,7.47
2023-01-09T23:12:17.997Z,8.63
2023-01-09T23:14:47.048Z,7.33
2023-01-09T23:17:16.111Z,8.70
2023-01-09T23:19:45.201Z,8.00
2023-01-09T23:22:15.648Z,7.77
2023-01-09T23:24:44.772Z,8.13
2023-01-09T23:27:13.817Z,8.20
2023-01-09T23:29:42.904Z,7.33
2023-01-09T23:32:13.913Z,8.33
2023-01-09T23:34:42.995Z,8.07
2023-01-09T23:37:12.147Z,8.73
2023-01-09T23:39:42.611Z,8.27
2023-01-09T23:42:30.093Z,8.67
2023-01-09T23:44:59.147Z,7.93
2023-01-09T23:47:28.405Z,7.43
2023-01-09T23:49:57.430Z,7.40
2023-01-09T23:52:26.468Z,8.13
2023-01-09T23:54:57.007Z,7.83
2023-01-09T23:57:26.527Z,6.67
2023-01-09T23:59:55.591Z,7.77
